Subpeak Weather - Last 24 Hours


View Last Hour    View Last 24 Hours

Time
Avg. Air Temp
Dew Point
Avg. Rel Humidity
Avg. 2 Min Wind Speed
Max Gust Velocity
MGV Time
MGV Direction
Avg. Spot Wind Velocity
2015-03-03 16:05:00-14° C-24° C45%7 km/h17 km/h2015-03-03 16:01:00N6 km/h
2015-03-03 15:05:00-15° C-24° C45%5 km/h20 km/h2015-03-03 15:02:10N7 km/h
2015-03-03 14:05:00-15° C-25° C41%6 km/h15 km/h2015-03-03 14:01:00N6 km/h
2015-03-03 13:05:00-15° C-26° C36%10 km/h14 km/h2015-03-03 13:05:10NW8 km/h
2015-03-03 12:05:00-15° C-29° C31%5 km/h11 km/h2015-03-03 12:02:10N6 km/h
2015-03-03 11:05:00-17° C-31° C29%14 km/h18 km/h2015-03-03 11:03:10N15 km/h
2015-03-03 10:05:00-17° C-33° C24%13 km/h15 km/h2015-03-03 10:03:10NE13 km/h
2015-03-03 09:05:00-18° C-30° C31%14 km/h16 km/h2015-03-03 09:05:10N14 km/h
2015-03-03 08:05:00-19° C-29° C42%17 km/h20 km/h2015-03-03 08:03:10NW18 km/h
2015-03-03 07:05:00-19° C-28° C45%22 km/h23 km/h2015-03-03 07:02:10NW21 km/h
2015-03-03 06:05:00-18° C-32° C29%23 km/h28 km/h2015-03-03 06:05:10N20 km/h
2015-03-03 05:05:00-18° C-31° C32%17 km/h23 km/h2015-03-03 05:03:10N17 km/h
2015-03-03 04:05:00-18° C-29° C39%14 km/h30 km/h2015-03-03 04:03:10N19 km/h
2015-03-03 03:05:00-17° C-30° C33%20 km/h31 km/h2015-03-03 03:01:00N18 km/h
2015-03-03 02:05:00-18° C-27° C45%25 km/h28 km/h2015-03-03 02:03:10NE25 km/h
2015-03-03 01:05:00-18° C-27° C45%33 km/h36 km/h2015-03-03 01:04:10NE31 km/h
2015-03-03 00:05:00-18° C-27° C43%37 km/h43 km/h2015-03-03 00:02:10NE38 km/h
2015-03-02 23:05:00-18° C-27° C46%40 km/h46 km/h2015-03-02 23:05:10NE37 km/h
2015-03-02 22:05:00-17° C-25° C53%16 km/h34 km/h2015-03-02 22:01:00N22 km/h
2015-03-02 21:05:00-17° C-22° C68%26 km/h33 km/h2015-03-02 21:04:10N24 km/h
2015-03-02 20:05:00-17° C-19° C85%40 km/h44 km/h2015-03-02 20:05:10NE40 km/h
2015-03-02 19:00:00-16° C-18° C88%31 km/h39 km/h2015-03-02 18:58:10NE28 km/h
2015-03-02 18:00:00-16° C-18° C88%10 km/h28 km/h2015-03-02 17:57:10SW10 km/h
2015-03-02 17:00:00-14° C-16° C89%16 km/h28 km/h2015-03-02 16:56:00NE13 km/h